Terminal Aerodrome Forecast
Issued by NWS

Home | Current Version | Previous Version | Text Only | Print | Product List | Glossary On
Versions: 1 2 3 4 5 6 7 8 9 10 11 12 13 14 15 16 17 18 19 20 21 22
232
FTUS42 KGSP 300812 AAA
TAFGMU
TAF AMD
KGMU 300812Z 3008/0106 18006KT P6SM SCT015 BKN060
     FM301000 18005KT 6SM BR SCT008 BKN015
      TEMPO 3011/3013 4SM BR BKN008
     FM301500 17006KT P6SM BKN020
     FM302000 17008KT P6SM BKN040 PROB30 3020/3024 4SM -TSRA
      OVC025CB
     FM010000 16010KT P6SM VCSH BKN025=

USA.gov is the U.S. government's official web portal to all federal, state and local government web resources and services.